sensor_id;sensor_type;location;lat;lon;timestamp;pressure;altitude;pressure_sealevel;temperature;humidity
71109;BME280;59614;51.012;-1.648;2023-08-24T00:00:45;100759.06;;;17.69;100.00
71109;BME280;59614;51.012;-1.648;2023-08-24T00:03:10;100761.06;;;17.64;100.00
71109;BME280;59614;51.012;-1.648;2023-08-24T00:05:36;100754.00;;;17.63;100.00
71109;BME280;59614;51.012;-1.648;2023-08-24T00:08:06;100751.31;;;17.63;100.00
71109;BME280;59614;51.012;-1.648;2023-08-24T00:10:33;100745.91;;;17.65;100.00
71109;BME280;59614;51.012;-1.648;2023-08-24T00:12:59;100736.13;;;17.65;100.00
71109;BME280;59614;51.012;-1.648;2023-08-24T00:15:24;100739.34;;;17.73;100.00
71109;BME280;59614;51.012;-1.648;2023-08-24T00:17:50;100734.19;;;17.69;100.00
71109;BME280;59614;51.012;-1.648;2023-08-24T00:20:15;100729.72;;;17.69;100.00
71109;BME280;59614;51.012;-1.648;2023-08-24T00:22:41;100722.59;;;17.70;100.00
71109;BME280;59614;51.012;-1.648;2023-08-24T00:25:07;100721.84;;;17.66;100.00
71109;BME280;59614;51.012;-1.648;2023-08-24T00:27:34;100720.78;;;17.70;100.00
71109;BME280;59614;51.012;-1.648;2023-08-24T00:30:02;100723.50;;;17.69;100.00
71109;BME280;59614;51.012;-1.648;2023-08-24T00:32:28;100719.00;;;17.71;100.00
71109;BME280;59614;51.012;-1.648;2023-08-24T00:34:54;100709.63;;;17.60;100.00
71109;BME280;59614;51.012;-1.648;2023-08-24T00:37:19;100712.03;;;17.67;100.00
71109;BME280;59614;51.012;-1.648;2023-08-24T00:39:45;100699.41;;;17.70;100.00
71109;BME280;59614;51.012;-1.648;2023-08-24T00:42:10;100704.56;;;17.75;100.00
71109;BME280;59614;51.012;-1.648;2023-08-24T00:44:40;100693.84;;;17.77;100.00
71109;BME280;59614;51.012;-1.648;2023-08-24T00:47:06;100691.00;;;17.80;100.00
71109;BME280;59614;51.012;-1.648;2023-08-24T00:49:32;100679.28;;;17.84;100.00
71109;BME280;59614;51.012;-1.648;2023-08-24T00:51:58;100665.81;;;17.87;100.00
71109;BME280;59614;51.012;-1.648;2023-08-24T00:54:25;100654.19;;;17.88;100.00
71109;BME280;59614;51.012;-1.648;2023-08-24T00:56:50;100656.59;;;17.94;100.00
71109;BME280;59614;51.012;-1.648;2023-08-24T00:59:16;100666.81;;;17.84;100.00
71109;BME280;59614;51.012;-1.648;2023-08-24T01:01:43;100662.13;;;17.89;100.00
71109;BME280;59614;51.012;-1.648;2023-08-24T01:04:10;100649.44;;;17.74;100.00
71109;BME280;59614;51.012;-1.648;2023-08-24T01:06:36;100637.25;;;17.89;100.00
71109;BME280;59614;51.012;-1.648;2023-08-24T01:09:02;100621.34;;;17.86;100.00
71109;BME280;59614;51.012;-1.648;2023-08-24T01:14:20;100595.66;;;17.83;100.00
71109;BME280;59614;51.012;-1.648;2023-08-24T01:16:47;100597.72;;;17.56;100.00
71109;BME280;59614;51.012;-1.648;2023-08-24T01:22:01;100587.38;;;17.27;100.00
71109;BME280;59614;51.012;-1.648;2023-08-24T01:24:38;100589.03;;;17.30;100.00
71109;BME280;59614;51.012;-1.648;2023-08-24T01:27:05;100591.16;;;17.22;100.00
71109;BME280;59614;51.012;-1.648;2023-08-24T01:29:30;100583.63;;;17.52;100.00
71109;BME280;59614;51.012;-1.648;2023-08-24T01:31:57;100596.00;;;17.55;100.00
71109;BME280;59614;51.012;-1.648;2023-08-24T01:34:22;100593.66;;;17.47;100.00
71109;BME280;59614;51.012;-1.648;2023-08-24T01:36:47;100601.69;;;17.25;100.00
71109;BME280;59614;51.012;-1.648;2023-08-24T01:39:28;100604.53;;;17.42;100.00
71109;BME280;59614;51.012;-1.648;2023-08-24T01:42:00;100612.88;;;17.55;100.00
71109;BME280;59614;51.012;-1.648;2023-08-24T01:44:28;100622.53;;;17.58;100.00
71109;BME280;59614;51.012;-1.648;2023-08-24T01:46:55;100631.75;;;17.51;100.00
71109;BME280;59614;51.012;-1.648;2023-08-24T01:49:22;100642.41;;;17.51;100.00
71109;BME280;59614;51.012;-1.648;2023-08-24T01:51:49;100650.31;;;17.54;100.00
71109;BME280;59614;51.012;-1.648;2023-08-24T01:54:15;100648.03;;;17.44;100.00
71109;BME280;59614;51.012;-1.648;2023-08-24T01:56:41;100646.59;;;17.36;100.00
71109;BME280;59614;51.012;-1.648;2023-08-24T01:59:06;100639.25;;;17.41;100.00
71109;BME280;59614;51.012;-1.648;2023-08-24T02:01:31;100621.50;;;17.40;100.00
71109;BME280;59614;51.012;-1.648;2023-08-24T02:03:57;100593.91;;;17.41;100.00
71109;BME280;59614;51.012;-1.648;2023-08-24T02:06:24;100585.16;;;17.58;100.00
71109;BME280;59614;51.012;-1.648;2023-08-24T02:08:49;100580.44;;;17.65;100.00
71109;BME280;59614;51.012;-1.648;2023-08-24T02:11:15;100590.50;;;17.58;100.00
71109;BME280;59614;51.012;-1.648;2023-08-24T02:13:40;100609.88;;;17.63;100.00
71109;BME280;59614;51.012;-1.648;2023-08-24T02:16:07;100611.66;;;17.63;100.00
71109;BME280;59614;51.012;-1.648;2023-08-24T02:18:38;100622.09;;;17.69;100.00
71109;BME280;59614;51.012;-1.648;2023-08-24T02:21:08;100620.53;;;17.63;100.00
71109;BME280;59614;51.012;-1.648;2023-08-24T02:23:33;100617.47;;;17.93;100.00
71109;BME280;59614;51.012;-1.648;2023-08-24T02:25:59;100616.88;;;18.07;100.00
71109;BME280;59614;51.012;-1.648;2023-08-24T02:28:24;100598.94;;;18.11;100.00
71109;BME280;59614;51.012;-1.648;2023-08-24T02:30:50;100579.38;;;18.29;100.00
71109;BME280;59614;51.012;-1.648;2023-08-24T02:33:15;100567.63;;;18.33;100.00
71109;BME280;59614;51.012;-1.648;2023-08-24T02:35:40;100547.53;;;18.44;100.00
71109;BME280;59614;51.012;-1.648;2023-08-24T02:38:06;100523.13;;;18.32;100.00
71109;BME280;59614;51.012;-1.648;2023-08-24T02:40:31;100517.06;;;17.49;100.00
71109;BME280;59614;51.012;-1.648;2023-08-24T02:42:57;100544.41;;;17.34;100.00
71109;BME280;59614;51.012;-1.648;2023-08-24T02:45:22;100561.63;;;17.68;100.00
71109;BME280;59614;51.012;-1.648;2023-08-24T02:47:48;100568.09;;;17.83;100.00
71109;BME280;59614;51.012;-1.648;2023-08-24T02:50:13;100570.50;;;17.89;100.00
71109;BME280;59614;51.012;-1.648;2023-08-24T02:52:38;100581.44;;;18.03;100.00
71109;BME280;59614;51.012;-1.648;2023-08-24T02:55:04;100606.00;;;18.12;100.00
71109;BME280;59614;51.012;-1.648;2023-08-24T02:57:30;100614.53;;;18.20;100.00
71109;BME280;59614;51.012;-1.648;2023-08-24T02:59:55;100598.38;;;18.23;100.00
71109;BME280;59614;51.012;-1.648;2023-08-24T03:02:21;100580.63;;;18.22;100.00
71109;BME280;59614;51.012;-1.648;2023-08-24T03:04:46;100560.19;;;18.21;100.00
71109;BME280;59614;51.012;-1.648;2023-08-24T03:07:12;100528.75;;;18.07;100.00
71109;BME280;59614;51.012;-1.648;2023-08-24T03:09:37;100498.25;;;17.73;100.00
71109;BME280;59614;51.012;-1.648;2023-08-24T03:12:03;100467.53;;;17.43;100.00
71109;BME280;59614;51.012;-1.648;2023-08-24T03:14:28;100470.16;;;17.23;100.00
71109;BME280;59614;51.012;-1.648;2023-08-24T03:16:54;100475.53;;;17.43;100.00
71109;BME280;59614;51.012;-1.648;2023-08-24T03:19:19;100475.19;;;17.70;100.00
71109;BME280;59614;51.012;-1.648;2023-08-24T03:21:45;100473.72;;;17.84;100.00
71109;BME280;59614;51.012;-1.648;2023-08-24T03:24:10;100466.97;;;17.75;100.00
71109;BME280;59614;51.012;-1.648;2023-08-24T03:26:36;100491.16;;;17.72;100.00
71109;BME280;59614;51.012;-1.648;2023-08-24T03:29:01;100556.13;;;17.91;100.00
71109;BME280;59614;51.012;-1.648;2023-08-24T03:31:27;100580.97;;;17.94;100.00
71109;BME280;59614;51.012;-1.648;2023-08-24T03:33:52;100567.75;;;17.90;100.00
71109;BME280;59614;51.012;-1.648;2023-08-24T03:36:18;100552.88;;;17.64;100.00
71109;BME280;59614;51.012;-1.648;2023-08-24T03:38:44;100521.03;;;17.18;100.00
71109;BME280;59614;51.012;-1.648;2023-08-24T03:41:10;100504.09;;;16.76;100.00
71109;BME280;59614;51.012;-1.648;2023-08-24T03:43:36;100498.31;;;16.87;100.00
71109;BME280;59614;51.012;-1.648;2023-08-24T03:46:03;100509.13;;;17.06;100.00
71109;BME280;59614;51.012;-1.648;2023-08-24T03:48:29;100505.53;;;17.28;100.00
71109;BME280;59614;51.012;-1.648;2023-08-24T03:50:55;100494.59;;;17.55;100.00
71109;BME280;59614;51.012;-1.648;2023-08-24T03:53:22;100492.44;;;17.63;100.00
71109;BME280;59614;51.012;-1.648;2023-08-24T03:55:48;100485.28;;;17.84;100.00
71109;BME280;59614;51.012;-1.648;2023-08-24T03:58:14;100483.63;;;18.01;100.00
71109;BME280;59614;51.012;-1.648;2023-08-24T04:00:40;100495.53;;;18.13;100.00
71109;BME280;59614;51.012;-1.648;2023-08-24T04:03:07;100516.78;;;18.16;100.00
71109;BME280;59614;51.012;-1.648;2023-08-24T04:05:33;100512.00;;;18.03;100.00
71109;BME280;59614;51.012;-1.648;2023-08-24T04:07:58;100525.34;;;18.03;100.00
71109;BME280;59614;51.012;-1.648;2023-08-24T04:10:25;100526.28;;;18.02;100.00
71109;BME280;59614;51.012;-1.648;2023-08-24T04:12:51;100515.00;;;17.96;100.00
71109;BME280;59614;51.012;-1.648;2023-08-24T04:15:16;100504.34;;;17.96;100.00
71109;BME280;59614;51.012;-1.648;2023-08-24T04:17:42;100488.25;;;17.97;100.00
71109;BME280;59614;51.012;-1.648;2023-08-24T04:20:07;100485.59;;;17.97;100.00
71109;BME280;59614;51.012;-1.648;2023-08-24T04:22:33;100495.66;;;17.90;100.00
71109;BME280;59614;51.012;-1.648;2023-08-24T04:24:59;100534.47;;;17.99;100.00
71109;BME280;59614;51.012;-1.648;2023-08-24T04:27:25;100545.13;;;17.99;100.00
71109;BME280;59614;51.012;-1.648;2023-08-24T04:29:50;100508.69;;;17.98;100.00
71109;BME280;59614;51.012;-1.648;2023-08-24T04:32:16;100504.13;;;17.80;100.00
71109;BME280;59614;51.012;-1.648;2023-08-24T04:34:41;100496.59;;;17.89;100.00
71109;BME280;59614;51.012;-1.648;2023-08-24T04:37:06;100516.00;;;17.93;100.00
71109;BME280;59614;51.012;-1.648;2023-08-24T04:39:32;100513.19;;;17.96;100.00
71109;BME280;59614;51.012;-1.648;2023-08-24T04:41:57;100519.75;;;17.89;100.00
71109;BME280;59614;51.012;-1.648;2023-08-24T04:44:23;100528.72;;;17.88;100.00
71109;BME280;59614;51.012;-1.648;2023-08-24T04:46:49;100515.28;;;17.89;100.00
71109;BME280;59614;51.012;-1.648;2023-08-24T04:49:15;100525.81;;;17.93;100.00
71109;BME280;59614;51.012;-1.648;2023-08-24T04:51:40;100522.34;;;17.90;100.00
71109;BME280;59614;51.012;-1.648;2023-08-24T04:54:06;100518.97;;;17.87;100.00
71109;BME280;59614;51.012;-1.648;2023-08-24T04:56:31;100516.00;;;17.93;100.00
71109;BME280;59614;51.012;-1.648;2023-08-24T04:58:57;100510.75;;;17.91;100.00
71109;BME280;59614;51.012;-1.648;2023-08-24T05:01:27;100532.19;;;17.90;100.00
71109;BME280;59614;51.012;-1.648;2023-08-24T05:03:53;100540.19;;;17.69;100.00
71109;BME280;59614;51.012;-1.648;2023-08-24T05:06:19;100534.25;;;17.63;100.00
71109;BME280;59614;51.012;-1.648;2023-08-24T05:08:45;100511.38;;;17.57;100.00
71109;BME280;59614;51.012;-1.648;2023-08-24T05:11:16;100507.34;;;17.48;100.00
71109;BME280;59614;51.012;-1.648;2023-08-24T05:13:42;100518.44;;;17.58;100.00
71109;BME280;59614;51.012;-1.648;2023-08-24T05:16:09;100507.38;;;17.67;100.00
71109;BME280;59614;51.012;-1.648;2023-08-24T05:18:35;100511.31;;;17.58;100.00
71109;BME280;59614;51.012;-1.648;2023-08-24T05:21:02;100498.31;;;17.51;100.00
71109;BME280;59614;51.012;-1.648;2023-08-24T05:23:29;100503.06;;;17.44;100.00
71109;BME280;59614;51.012;-1.648;2023-08-24T05:25:54;100512.19;;;17.59;100.00
71109;BME280;59614;51.012;-1.648;2023-08-24T05:28:19;100511.75;;;17.68;100.00
71109;BME280;59614;51.012;-1.648;2023-08-24T05:30:45;100499.72;;;17.59;100.00
71109;BME280;59614;51.012;-1.648;2023-08-24T05:33:10;100478.28;;;17.61;100.00
71109;BME280;59614;51.012;-1.648;2023-08-24T05:35:36;100465.66;;;17.65;100.00
71109;BME280;59614;51.012;-1.648;2023-08-24T05:38:01;100471.16;;;17.81;100.00
71109;BME280;59614;51.012;-1.648;2023-08-24T05:40:27;100473.91;;;17.79;100.00
71109;BME280;59614;51.012;-1.648;2023-08-24T05:42:52;100464.97;;;17.80;100.00
71109;BME280;59614;51.012;-1.648;2023-08-24T05:45:18;100470.94;;;17.85;100.00
71109;BME280;59614;51.012;-1.648;2023-08-24T05:47:43;100475.16;;;17.91;100.00
71109;BME280;59614;51.012;-1.648;2023-08-24T05:50:09;100488.44;;;17.93;100.00
71109;BME280;59614;51.012;-1.648;2023-08-24T05:52:37;100492.25;;;17.87;100.00
71109;BME280;59614;51.012;-1.648;2023-08-24T05:55:02;100487.38;;;17.97;100.00
71109;BME280;59614;51.012;-1.648;2023-08-24T05:57:27;100496.28;;;17.97;100.00
71109;BME280;59614;51.012;-1.648;2023-08-24T05:59:53;100487.97;;;18.03;100.00
71109;BME280;59614;51.012;-1.648;2023-08-24T06:02:18;100487.97;;;18.03;100.00
71109;BME280;59614;51.012;-1.648;2023-08-24T06:04:44;100469.44;;;18.00;100.00
71109;BME280;59614;51.012;-1.648;2023-08-24T06:07:09;100473.09;;;17.98;100.00
71109;BME280;59614;51.012;-1.648;2023-08-24T06:09:35;100485.44;;;17.80;100.00
71109;BME280;59614;51.012;-1.648;2023-08-24T06:12:00;100476.03;;;17.91;100.00
71109;BME280;59614;51.012;-1.648;2023-08-24T06:14:26;100501.84;;;17.91;100.00
71109;BME280;59614;51.012;-1.648;2023-08-24T06:16:51;100480.88;;;17.83;100.00
71109;BME280;59614;51.012;-1.648;2023-08-24T06:19:18;100465.56;;;17.87;100.00
71109;BME280;59614;51.012;-1.648;2023-08-24T06:21:44;100476.50;;;17.81;100.00
71109;BME280;59614;51.012;-1.648;2023-08-24T06:24:09;100479.72;;;17.89;100.00
71109;BME280;59614;51.012;-1.648;2023-08-24T06:26:35;100480.16;;;17.99;100.00
71109;BME280;59614;51.012;-1.648;2023-08-24T06:29:00;100477.44;;;18.00;100.00
71109;BME280;59614;51.012;-1.648;2023-08-24T06:31:26;100484.50;;;18.01;100.00
71109;BME280;59614;51.012;-1.648;2023-08-24T06:33:51;100483.56;;;18.02;100.00
71109;BME280;59614;51.012;-1.648;2023-08-24T06:36:18;100474.47;;;18.06;100.00
71109;BME280;59614;51.012;-1.648;2023-08-24T06:38:43;100460.97;;;18.10;100.00
71109;BME280;59614;51.012;-1.648;2023-08-24T06:41:09;100448.06;;;18.00;100.00
71109;BME280;59614;51.012;-1.648;2023-08-24T06:43:37;100448.84;;;18.02;100.00
71109;BME280;59614;51.012;-1.648;2023-08-24T06:46:05;100449.06;;;18.17;100.00
71109;BME280;59614;51.012;-1.648;2023-08-24T06:48:34;100445.81;;;18.29;100.00
71109;BME280;59614;51.012;-1.648;2023-08-24T06:50:59;100446.47;;;18.34;100.00
71109;BME280;59614;51.012;-1.648;2023-08-24T06:53:25;100450.22;;;18.30;100.00
71109;BME280;59614;51.012;-1.648;2023-08-24T06:55:57;100432.75;;;18.23;100.00
71109;BME280;59614;51.012;-1.648;2023-08-24T06:58:23;100430.13;;;18.21;100.00
71109;BME280;59614;51.012;-1.648;2023-08-24T07:00:48;100418.16;;;18.11;100.00
71109;BME280;59614;51.012;-1.648;2023-08-24T07:03:17;100409.34;;;18.09;100.00
71109;BME280;59614;51.012;-1.648;2023-08-24T07:05:43;100390.44;;;18.14;100.00
71109;BME280;59614;51.012;-1.648;2023-08-24T07:08:09;100374.91;;;18.22;100.00
71109;BME280;59614;51.012;-1.648;2023-08-24T07:10:34;100360.63;;;18.23;100.00
71109;BME280;59614;51.012;-1.648;2023-08-24T07:13:00;100352.59;;;18.23;100.00
71109;BME280;59614;51.012;-1.648;2023-08-24T07:15:25;100373.91;;;18.25;100.00
71109;BME280;59614;51.012;-1.648;2023-08-24T07:17:50;100371.13;;;18.26;100.00
71109;BME280;59614;51.012;-1.648;2023-08-24T07:20:16;100359.03;;;18.19;100.00
71109;BME280;59614;51.012;-1.648;2023-08-24T07:22:41;100334.75;;;18.06;100.00
71109;BME280;59614;51.012;-1.648;2023-08-24T07:25:08;100308.91;;;18.06;100.00
71109;BME280;59614;51.012;-1.648;2023-08-24T07:27:34;100303.09;;;18.16;100.00
71109;BME280;59614;51.012;-1.648;2023-08-24T07:30:01;100315.22;;;18.23;100.00
71109;BME280;59614;51.012;-1.648;2023-08-24T07:32:28;100334.06;;;18.20;100.00
71109;BME280;59614;51.012;-1.648;2023-08-24T07:34:55;100351.16;;;18.16;100.00
71109;BME280;59614;51.012;-1.648;2023-08-24T07:37:22;100354.63;;;18.18;100.00
71109;BME280;59614;51.012;-1.648;2023-08-24T07:39:47;100354.25;;;18.43;100.00
71109;BME280;59614;51.012;-1.648;2023-08-24T07:42:13;100351.66;;;18.59;100.00
71109;BME280;59614;51.012;-1.648;2023-08-24T07:44:38;100336.06;;;18.51;100.00
71109;BME280;59614;51.012;-1.648;2023-08-24T07:47:04;100319.78;;;18.56;100.00
71109;BME280;59614;51.012;-1.648;2023-08-24T07:49:29;100304.34;;;18.61;100.00
71109;BME280;59614;51.012;-1.648;2023-08-24T07:51:55;100286.81;;;18.73;100.00
71109;BME280;59614;51.012;-1.648;2023-08-24T07:54:22;100270.28;;;18.82;100.00
71109;BME280;59614;51.012;-1.648;2023-08-24T07:56:48;100269.06;;;18.72;100.00
71109;BME280;59614;51.012;-1.648;2023-08-24T07:59:13;100278.75;;;18.57;100.00
71109;BME280;59614;51.012;-1.648;2023-08-24T08:01:38;100288.91;;;18.84;100.00
71109;BME280;59614;51.012;-1.648;2023-08-24T08:04:04;100307.94;;;18.95;100.00
71109;BME280;59614;51.012;-1.648;2023-08-24T08:06:29;100317.63;;;18.98;100.00
71109;BME280;59614;51.012;-1.648;2023-08-24T08:08:55;100314.94;;;18.98;100.00
71109;BME280;59614;51.012;-1.648;2023-08-24T08:11:21;100306.00;;;19.15;100.00
71109;BME280;59614;51.012;-1.648;2023-08-24T08:13:47;100306.88;;;19.16;100.00
71109;BME280;59614;51.012;-1.648;2023-08-24T08:16:12;100352.00;;;19.39;100.00
71109;BME280;59614;51.012;-1.648;2023-08-24T08:18:38;100367.72;;;19.62;100.00
71109;BME280;59614;51.012;-1.648;2023-08-24T08:21:10;100393.28;;;19.67;100.00
71109;BME280;59614;51.012;-1.648;2023-08-24T08:23:37;100404.09;;;19.66;100.00
71109;BME280;59614;51.012;-1.648;2023-08-24T08:26:02;100406.94;;;19.63;100.00
71109;BME280;59614;51.012;-1.648;2023-08-24T08:28:28;100404.59;;;19.56;100.00
71109;BME280;59614;51.012;-1.648;2023-08-24T08:30:53;100394.44;;;19.29;100.00
71109;BME280;59614;51.012;-1.648;2023-08-24T08:33:19;100384.38;;;19.17;100.00
71109;BME280;59614;51.012;-1.648;2023-08-24T08:35:46;100381.31;;;18.90;100.00
71109;BME280;59614;51.012;-1.648;2023-08-24T08:38:12;100378.50;;;18.93;100.00
71109;BME280;59614;51.012;-1.648;2023-08-24T08:40:37;100376.06;;;18.88;100.00
71109;BME280;59614;51.012;-1.648;2023-08-24T08:43:03;100384.88;;;18.90;100.00
71109;BME280;59614;51.012;-1.648;2023-08-24T08:45:29;100383.59;;;18.62;100.00
71109;BME280;59614;51.012;-1.648;2023-08-24T08:47:59;100385.00;;;18.52;100.00
71109;BME280;59614;51.012;-1.648;2023-08-24T08:50:24;100386.31;;;18.43;100.00
71109;BME280;59614;51.012;-1.648;2023-08-24T08:52:50;100381.38;;;19.23;100.00
71109;BME280;59614;51.012;-1.648;2023-08-24T08:55:15;100375.06;;;19.74;100.00
71109;BME280;59614;51.012;-1.648;2023-08-24T08:57:41;100372.38;;;20.38;100.00
71109;BME280;59614;51.012;-1.648;2023-08-24T09:00:10;100365.69;;;21.06;100.00
71109;BME280;59614;51.012;-1.648;2023-08-24T09:02:39;100365.50;;;21.53;100.00
71109;BME280;59614;51.012;-1.648;2023-08-24T09:05:07;100373.59;;;20.32;95.53
71109;BME280;59614;51.012;-1.648;2023-08-24T09:07:34;100379.97;;;20.46;99.43
71109;BME280;59614;51.012;-1.648;2023-08-24T09:10:00;100377.31;;;20.76;100.00
71109;BME280;59614;51.012;-1.648;2023-08-24T09:12:26;100375.25;;;20.96;100.00
71109;BME280;59614;51.012;-1.648;2023-08-24T09:14:56;100386.94;;;20.95;96.54
71109;BME280;59614;51.012;-1.648;2023-08-24T09:17:21;100375.94;;;21.14;97.21
71109;BME280;59614;51.012;-1.648;2023-08-24T09:19:49;100385.66;;;21.17;100.00
71109;BME280;59614;51.012;-1.648;2023-08-24T09:22:15;100387.75;;;21.26;100.00
71109;BME280;59614;51.012;-1.648;2023-08-24T09:24:40;100375.94;;;21.14;100.00
71109;BME280;59614;51.012;-1.648;2023-08-24T09:27:19;100366.06;;;21.29;89.28
71109;BME280;59614;51.012;-1.648;2023-08-24T09:29:51;100391.09;;;21.58;92.62
71109;BME280;59614;51.012;-1.648;2023-08-24T09:32:30;100403.09;;;21.38;84.60
71109;BME280;59614;51.012;-1.648;2023-08-24T09:35:10;100399.25;;;21.13;91.16
71109;BME280;59614;51.012;-1.648;2023-08-24T09:37:37;100396.06;;;21.07;97.97
71109;BME280;59614;51.012;-1.648;2023-08-24T09:40:07;100383.31;;;21.39;97.94
71109;BME280;59614;51.012;-1.648;2023-08-24T09:42:40;100394.94;;;21.40;94.74
71109;BME280;59614;51.012;-1.648;2023-08-24T09:45:07;100393.50;;;21.20;94.78
71109;BME280;59614;51.012;-1.648;2023-08-24T09:47:35;100394.06;;;21.10;95.47
71109;BME280;59614;51.012;-1.648;2023-08-24T09:50:01;100396.69;;;21.41;96.62
71109;BME280;59614;51.012;-1.648;2023-08-24T09:52:32;100400.06;;;21.59;95.96
71109;BME280;59614;51.012;-1.648;2023-08-24T09:55:02;100404.25;;;21.78;95.56
71109;BME280;59614;51.012;-1.648;2023-08-24T09:57:31;100420.25;;;21.94;89.87
71109;BME280;59614;51.012;-1.648;2023-08-24T09:59:57;100416.97;;;22.30;92.32
71109;BME280;59614;51.012;-1.648;2023-08-24T10:02:25;100418.59;;;22.47;86.07
71109;BME280;59614;51.012;-1.648;2023-08-24T10:04:54;100407.72;;;22.89;87.46
71109;BME280;59614;51.012;-1.648;2023-08-24T10:07:22;100401.22;;;23.32;86.14
71109;BME280;59614;51.012;-1.648;2023-08-24T10:09:53;100403.22;;;23.54;75.63
71109;BME280;59614;51.012;-1.648;2023-08-24T10:12:24;100409.50;;;23.42;80.41
71109;BME280;59614;51.012;-1.648;2023-08-24T10:15:01;100408.16;;;22.96;85.66
71109;BME280;59614;51.012;-1.648;2023-08-24T10:17:32;100411.03;;;22.67;86.70
71109;BME280;59614;51.012;-1.648;2023-08-24T10:20:00;100409.34;;;22.51;84.88
71109;BME280;59614;51.012;-1.648;2023-08-24T10:22:33;100412.31;;;22.61;88.48
71109;BME280;59614;51.012;-1.648;2023-08-24T10:24:59;100417.25;;;22.67;88.02
71109;BME280;59614;51.012;-1.648;2023-08-24T10:27:26;100418.22;;;22.66;88.29
71109;BME280;59614;51.012;-1.648;2023-08-24T10:29:52;100430.56;;;22.56;89.80
71109;BME280;59614;51.012;-1.648;2023-08-24T10:32:19;100433.13;;;22.30;89.62
71109;BME280;59614;51.012;-1.648;2023-08-24T10:34:45;100427.41;;;22.08;91.24
71109;BME280;59614;51.012;-1.648;2023-08-24T10:37:11;100414.88;;;21.94;90.74
71109;BME280;59614;51.012;-1.648;2023-08-24T10:39:46;100400.41;;;21.82;91.95
71109;BME280;59614;51.012;-1.648;2023-08-24T10:42:15;100389.88;;;21.79;88.18
71109;BME280;59614;51.012;-1.648;2023-08-24T10:44:44;100394.75;;;21.72;93.37
71109;BME280;59614;51.012;-1.648;2023-08-24T10:49:39;100391.75;;;21.91;97.29
71109;BME280;59614;51.012;-1.648;2023-08-24T10:54:43;100386.44;;;22.46;96.00
71109;BME280;59614;51.012;-1.648;2023-08-24T10:57:21;100385.09;;;22.66;92.92
71109;BME280;59614;51.012;-1.648;2023-08-24T11:00:03;100378.03;;;22.91;93.83
71109;BME280;59614;51.012;-1.648;2023-08-24T11:02:31;100383.81;;;22.97;92.02
71109;BME280;59614;51.012;-1.648;2023-08-24T11:05:07;100385.03;;;22.93;92.28
71109;BME280;59614;51.012;-1.648;2023-08-24T11:07:53;100386.41;;;23.12;91.33
71109;BME280;59614;51.012;-1.648;2023-08-24T11:10:20;100387.63;;;23.08;91.95
71109;BME280;59614;51.012;-1.648;2023-08-24T11:15:37;100369.06;;;22.90;91.53
71109;BME280;59614;51.012;-1.648;2023-08-24T11:21:01;100353.69;;;23.05;90.00
71109;BME280;59614;51.012;-1.648;2023-08-24T11:23:27;100351.78;;;23.20;89.47
71109;BME280;59614;51.012;-1.648;2023-08-24T11:25:54;100343.16;;;23.28;88.40
71109;BME280;59614;51.012;-1.648;2023-08-24T11:28:29;100346.19;;;23.23;85.85
71109;BME280;59614;51.012;-1.648;2023-08-24T11:30:57;100335.47;;;23.09;86.69
71109;BME280;59614;51.012;-1.648;2023-08-24T11:33:29;100341.19;;;23.04;87.03
71109;BME280;59614;51.012;-1.648;2023-08-24T11:35:54;100341.31;;;23.03;88.24
71109;BME280;59614;51.012;-1.648;2023-08-24T11:38:20;100343.78;;;23.06;90.24
71109;BME280;59614;51.012;-1.648;2023-08-24T11:40:45;100339.69;;;22.87;87.65
71109;BME280;59614;51.012;-1.648;2023-08-24T11:43:11;100337.59;;;22.52;89.44
71109;BME280;59614;51.012;-1.648;2023-08-24T11:45:37;100338.66;;;22.22;94.21
71109;BME280;59614;51.012;-1.648;2023-08-24T11:48:04;100330.00;;;22.04;95.44
71109;BME280;59614;51.012;-1.648;2023-08-24T11:50:30;100328.53;;;21.85;94.55
71109;BME280;59614;51.012;-1.648;2023-08-24T11:52:56;100316.91;;;21.85;95.58
71109;BME280;59614;51.012;-1.648;2023-08-24T11:55:23;100316.38;;;21.80;97.70
71109;BME280;59614;51.012;-1.648;2023-08-24T11:57:49;100322.88;;;21.90;94.56
71109;BME280;59614;51.012;-1.648;2023-08-24T12:00:15;100325.41;;;22.06;96.41
71109;BME280;59614;51.012;-1.648;2023-08-24T12:02:42;100325.59;;;22.03;95.80
71109;BME280;59614;51.012;-1.648;2023-08-24T12:05:07;100319.88;;;21.95;94.45
71109;BME280;59614;51.012;-1.648;2023-08-24T12:07:33;100312.13;;;21.90;96.00
71109;BME280;59614;51.012;-1.648;2023-08-24T12:10:02;100302.13;;;21.92;95.47
71109;BME280;59614;51.012;-1.648;2023-08-24T12:12:28;100302.28;;;22.03;97.12
71109;BME280;59614;51.012;-1.648;2023-08-24T12:14:54;100314.50;;;21.95;95.81
71109;BME280;59614;51.012;-1.648;2023-08-24T12:17:20;100308.28;;;21.94;96.97
71109;BME280;59614;51.012;-1.648;2023-08-24T12:19:57;100296.91;;;22.03;94.85
71109;BME280;59614;51.012;-1.648;2023-08-24T12:22:22;100300.94;;;21.96;96.12
71109;BME280;59614;51.012;-1.648;2023-08-24T12:24:48;100290.34;;;21.80;96.90
71109;BME280;59614;51.012;-1.648;2023-08-24T12:27:24;100289.91;;;21.73;98.95
71109;BME280;59614;51.012;-1.648;2023-08-24T12:29:50;100269.47;;;21.56;98.20
71109;BME280;59614;51.012;-1.648;2023-08-24T12:32:16;100283.81;;;21.28;100.00
71109;BME280;59614;51.012;-1.648;2023-08-24T12:34:45;100291.31;;;21.08;100.00
71109;BME280;59614;51.012;-1.648;2023-08-24T12:37:10;100290.53;;;21.06;100.00
71109;BME280;59614;51.012;-1.648;2023-08-24T12:39:37;100281.72;;;21.19;100.00
71109;BME280;59614;51.012;-1.648;2023-08-24T12:42:03;100278.72;;;21.38;100.00
71109;BME280;59614;51.012;-1.648;2023-08-24T12:44:29;100276.88;;;21.53;100.00
71109;BME280;59614;51.012;-1.648;2023-08-24T12:46:54;100274.97;;;21.55;100.00